Maricamp, Florida
Current Conditions -  °F | °C
As of 12:50 PM on Monday 26 Jan 2015 (Local Time) from KOCF Reporting Station
Few Clouds Few Clouds  
Wind Chill: 61°   Ceiling: Unl
Heat Index: 61°   Visibility: 10mi
Dew Point: 36°   Wind: 18mph
Humidity: 39%   Direction: 280°W
Pressure: 29.86"   Gusts: 26mph
Location:  29.1101°N, 81.9816°W
Report Text: KOCF 261750Z 28016G23KT 10SM FEW050 16/02 A2986
Loading
Personal Weather Stations






























Interactive Weather Map New forecast layout! Learn more

10-Day Weather Forecast

Advertisements
Track Severe Weather on mobile